sensor_id;sensor_type;location;lat;lon;timestamp;pressure;altitude;pressure_sealevel;temperature
74449;BMP280;62878;51.026;4.472;2022-11-15T00:01:31;-5948.81;;;14.91
74449;BMP280;62878;51.026;4.472;2022-11-15T00:03:56;-5950.34;;;15.00
74449;BMP280;62878;51.026;4.472;2022-11-15T00:06:22;-5948.91;;;14.91
74449;BMP280;62878;51.026;4.472;2022-11-15T00:08:47;-5950.44;;;15.00
74449;BMP280;62878;51.026;4.472;2022-11-15T00:11:12;-5950.25;;;14.99
74449;BMP280;62878;51.026;4.472;2022-11-15T00:13:38;-5950.69;;;15.02
74449;BMP280;62878;51.026;4.472;2022-11-15T00:16:04;-5950.25;;;14.99
74449;BMP280;62878;51.026;4.472;2022-11-15T00:18:29;-5950.09;;;14.98
74449;BMP280;62878;51.026;4.472;2022-11-15T00:20:56;-5950.09;;;14.98
74449;BMP280;62878;51.026;4.472;2022-11-15T00:23:21;-5948.06;;;14.86
74449;BMP280;62878;51.026;4.472;2022-11-15T00:25:55;-5949.34;;;14.94
74449;BMP280;62878;51.026;4.472;2022-11-15T00:28:20;-5950.25;;;14.99
74449;BMP280;62878;51.026;4.472;2022-11-15T00:30:47;-5948.41;;;14.88
74449;BMP280;62878;51.026;4.472;2022-11-15T00:33:12;-5947.06;;;14.80
74449;BMP280;62878;51.026;4.472;2022-11-15T00:35:37;-5950.09;;;14.98
74449;BMP280;62878;51.026;4.472;2022-11-15T00:38:03;-5950.19;;;14.99
74449;BMP280;62878;51.026;4.472;2022-11-15T00:40:28;-5950.34;;;15.00
74449;BMP280;62878;51.026;4.472;2022-11-15T00:42:54;-5950.19;;;14.99
74449;BMP280;62878;51.026;4.472;2022-11-15T00:45:19;-5948.91;;;14.91
74449;BMP280;62878;51.026;4.472;2022-11-15T00:47:45;-5949.75;;;14.96
74449;BMP280;62878;51.026;4.472;2022-11-15T00:50:11;-5950.44;;;15.00
74449;BMP280;62878;51.026;4.472;2022-11-15T00:52:37;-5950.25;;;14.99
74449;BMP280;62878;51.026;4.472;2022-11-15T00:55:02;-5948.66;;;14.90
74449;BMP280;62878;51.026;4.472;2022-11-15T00:57:28;-5949.50;;;14.95
74449;BMP280;62878;51.026;4.472;2022-11-15T00:59:53;-5950.69;;;15.02
74449;BMP280;62878;51.026;4.472;2022-11-15T01:02:18;-5950.50;;;15.01
74449;BMP280;62878;51.026;4.472;2022-11-15T01:04:44;-5950.19;;;14.99
74449;BMP280;62878;51.026;4.472;2022-11-15T01:07:09;-5950.25;;;14.99
74449;BMP280;62878;51.026;4.472;2022-11-15T01:09:34;-5950.34;;;15.00
74449;BMP280;62878;51.026;4.472;2022-11-15T01:11:59;-5950.44;;;15.00
74449;BMP280;62878;51.026;4.472;2022-11-15T01:14:25;-5948.66;;;14.90
74449;BMP280;62878;51.026;4.472;2022-11-15T01:16:50;-5950.44;;;15.00
74449;BMP280;62878;51.026;4.472;2022-11-15T01:19:15;-5947.22;;;14.81
74449;BMP280;62878;51.026;4.472;2022-11-15T01:21:41;-5950.59;;;15.01
74449;BMP280;62878;51.026;4.472;2022-11-15T01:24:07;-5949.75;;;14.96
74449;BMP280;62878;51.026;4.472;2022-11-15T01:26:35;-5950.34;;;15.00
74449;BMP280;62878;51.026;4.472;2022-11-15T01:29:01;-5950.19;;;14.99
74449;BMP280;62878;51.026;4.472;2022-11-15T01:31:26;-5950.09;;;14.98
74449;BMP280;62878;51.026;4.472;2022-11-15T01:33:51;-5950.09;;;14.98
74449;BMP280;62878;51.026;4.472;2022-11-15T01:36:19;-5948.06;;;14.86
74449;BMP280;62878;51.026;4.472;2022-11-15T01:38:47;-5950.34;;;15.00
74449;BMP280;62878;51.026;4.472;2022-11-15T01:41:20;-5950.44;;;15.00
74449;BMP280;62878;51.026;4.472;2022-11-15T01:43:52;-5948.50;;;14.89
74449;BMP280;62878;51.026;4.472;2022-11-15T01:48:46;-5950.44;;;15.00
74449;BMP280;62878;51.026;4.472;2022-11-15T01:51:13;-5950.75;;;15.02
74449;BMP280;62878;51.026;4.472;2022-11-15T01:53:42;-5948.91;;;14.91
74449;BMP280;62878;51.026;4.472;2022-11-15T01:56:12;-5949.91;;;14.97
74449;BMP280;62878;51.026;4.472;2022-11-15T01:58:39;-5950.19;;;14.99
74449;BMP280;62878;51.026;4.472;2022-11-15T02:01:06;-5950.34;;;15.00
74449;BMP280;62878;51.026;4.472;2022-11-15T02:03:43;-5948.41;;;14.88
74449;BMP280;62878;51.026;4.472;2022-11-15T02:06:09;-5950.59;;;15.01
74449;BMP280;62878;51.026;4.472;2022-11-15T02:08:35;-5943.69;;;14.60
74449;BMP280;62878;51.026;4.472;2022-11-15T02:11:00;-5950.09;;;14.98
74449;BMP280;62878;51.026;4.472;2022-11-15T02:13:25;-5950.19;;;14.99
74449;BMP280;62878;51.026;4.472;2022-11-15T02:15:59;-5950.50;;;15.01
74449;BMP280;62878;51.026;4.472;2022-11-15T02:18:35;-5950.25;;;14.99
74449;BMP280;62878;51.026;4.472;2022-11-15T02:21:17;-5949.59;;;14.95
74449;BMP280;62878;51.026;4.472;2022-11-15T02:29:40;-5950.09;;;14.98
74449;BMP280;62878;51.026;4.472;2022-11-15T02:40:38;-5950.19;;;14.99
74449;BMP280;62878;51.026;4.472;2022-11-15T02:43:11;-5949.84;;;14.97
74449;BMP280;62878;51.026;4.472;2022-11-15T02:46:04;-5949.75;;;14.96
74449;BMP280;62878;51.026;4.472;2022-11-15T02:48:32;-5949.41;;;14.94
74449;BMP280;62878;51.026;4.472;2022-11-15T02:50:59;-5950.00;;;14.98
74449;BMP280;62878;51.026;4.472;2022-11-15T02:53:25;-5949.66;;;14.96
74449;BMP280;62878;51.026;4.472;2022-11-15T02:55:53;-5949.91;;;14.97
74449;BMP280;62878;51.026;4.472;2022-11-15T03:01:10;-5949.75;;;14.96
74449;BMP280;62878;51.026;4.472;2022-11-15T03:03:47;-5950.09;;;14.98
74449;BMP280;62878;51.026;4.472;2022-11-15T03:06:36;-5949.91;;;14.97
74449;BMP280;62878;51.026;4.472;2022-11-15T03:11:42;-5949.91;;;14.97
74449;BMP280;62878;51.026;4.472;2022-11-15T03:14:14;-5949.75;;;14.96
74449;BMP280;62878;51.026;4.472;2022-11-15T03:17:15;-5949.91;;;14.97
74449;BMP280;62878;51.026;4.472;2022-11-15T03:19:46;-5949.84;;;14.97
74449;BMP280;62878;51.026;4.472;2022-11-15T03:22:16;-5948.81;;;14.91
74449;BMP280;62878;51.026;4.472;2022-11-15T03:24:44;-5943.28;;;14.57
74449;BMP280;62878;51.026;4.472;2022-11-15T03:27:13;-5945.88;;;14.73
74449;BMP280;62878;51.026;4.472;2022-11-15T03:29:44;-5949.84;;;14.97
74449;BMP280;62878;51.026;4.472;2022-11-15T03:32:17;-5949.75;;;14.96
74449;BMP280;62878;51.026;4.472;2022-11-15T03:35:20;-5949.59;;;14.95
74449;BMP280;62878;51.026;4.472;2022-11-15T03:37:52;-5949.50;;;14.95
74449;BMP280;62878;51.026;4.472;2022-11-15T03:40:23;-5949.75;;;14.96
74449;BMP280;62878;51.026;4.472;2022-11-15T03:45:28;-5943.09;;;14.56
74449;BMP280;62878;51.026;4.472;2022-11-15T03:48:05;-5949.34;;;14.94
74449;BMP280;62878;51.026;4.472;2022-11-15T03:50:32;-5947.97;;;14.85
74449;BMP280;62878;51.026;4.472;2022-11-15T03:52:58;-5950.25;;;14.99
74449;BMP280;62878;51.026;4.472;2022-11-15T03:55:23;-5949.59;;;14.95
74449;BMP280;62878;51.026;4.472;2022-11-15T03:57:51;-5949.09;;;14.92
74449;BMP280;62878;51.026;4.472;2022-11-15T04:00:18;-5946.13;;;14.74
74449;BMP280;62878;51.026;4.472;2022-11-15T04:02:43;-5948.75;;;14.90
74449;BMP280;62878;51.026;4.472;2022-11-15T04:05:08;-5948.06;;;14.86
74449;BMP280;62878;51.026;4.472;2022-11-15T04:07:34;-5949.84;;;14.97
74449;BMP280;62878;51.026;4.472;2022-11-15T04:09:59;-5948.41;;;14.88
74449;BMP280;62878;51.026;4.472;2022-11-15T04:12:29;-5949.66;;;14.96
74449;BMP280;62878;51.026;4.472;2022-11-15T04:15:08;-5949.75;;;14.96
74449;BMP280;62878;51.026;4.472;2022-11-15T04:20:20;-5949.41;;;14.94
74449;BMP280;62878;51.026;4.472;2022-11-15T04:23:15;-5949.41;;;14.94
74449;BMP280;62878;51.026;4.472;2022-11-15T04:26:21;-5949.41;;;14.94
74449;BMP280;62878;51.026;4.472;2022-11-15T04:28:46;-5949.16;;;14.93
74449;BMP280;62878;51.026;4.472;2022-11-15T04:31:30;-5949.25;;;14.93
74449;BMP280;62878;51.026;4.472;2022-11-15T04:33:56;-5949.09;;;14.92
74449;BMP280;62878;51.026;4.472;2022-11-15T04:36:21;-5949.16;;;14.93
74449;BMP280;62878;51.026;4.472;2022-11-15T04:39:05;-5949.25;;;14.93
74449;BMP280;62878;51.026;4.472;2022-11-15T04:41:31;-5948.56;;;14.89
74449;BMP280;62878;51.026;4.472;2022-11-15T04:43:56;-5949.25;;;14.93
74449;BMP280;62878;51.026;4.472;2022-11-15T04:46:22;-5948.91;;;14.91
74449;BMP280;62878;51.026;4.472;2022-11-15T04:48:48;-5949.25;;;14.93
74449;BMP280;62878;51.026;4.472;2022-11-15T04:51:14;-5948.66;;;14.90
74449;BMP280;62878;51.026;4.472;2022-11-15T04:53:39;-5948.50;;;14.89
74449;BMP280;62878;51.026;4.472;2022-11-15T04:56:04;-5949.41;;;14.94
74449;BMP280;62878;51.026;4.472;2022-11-15T04:58:31;-5948.31;;;14.88
74449;BMP280;62878;51.026;4.472;2022-11-15T05:00:56;-5949.25;;;14.93
74449;BMP280;62878;51.026;4.472;2022-11-15T05:03:22;-5948.25;;;14.87
74449;BMP280;62878;51.026;4.472;2022-11-15T05:06:06;-5949.75;;;14.96
74449;BMP280;62878;51.026;4.472;2022-11-15T05:08:31;-5947.16;;;14.80
74449;BMP280;62878;51.026;4.472;2022-11-15T05:10:57;-5950.50;;;15.01
74449;BMP280;62878;51.026;4.472;2022-11-15T05:13:22;-5950.44;;;15.00
74449;BMP280;62878;51.026;4.472;2022-11-15T05:15:47;-5952.03;;;15.10
74449;BMP280;62878;51.026;4.472;2022-11-15T05:18:13;-5951.78;;;15.08
74449;BMP280;62878;51.026;4.472;2022-11-15T05:20:38;-5950.59;;;15.01
74449;BMP280;62878;51.026;4.472;2022-11-15T05:23:05;-5950.94;;;15.03
74449;BMP280;62878;51.026;4.472;2022-11-15T05:25:30;-5950.59;;;15.01
74449;BMP280;62878;51.026;4.472;2022-11-15T05:27:56;-5953.38;;;15.18
74449;BMP280;62878;51.026;4.472;2022-11-15T05:30:21;-5953.97;;;15.21
74449;BMP280;62878;51.026;4.472;2022-11-15T05:32:47;-5953.47;;;15.18
74449;BMP280;62878;51.026;4.472;2022-11-15T05:35:17;-5953.53;;;15.19
74449;BMP280;62878;51.026;4.472;2022-11-15T05:37:44;-5953.72;;;15.20
74449;BMP280;62878;51.026;4.472;2022-11-15T05:40:09;-5953.47;;;15.18
74449;BMP280;62878;51.026;4.472;2022-11-15T05:42:36;-5954.06;;;15.22
74449;BMP280;62878;51.026;4.472;2022-11-15T05:45:05;-5953.28;;;15.17
74449;BMP280;62878;51.026;4.472;2022-11-15T05:47:31;-5951.44;;;15.06
74449;BMP280;62878;51.026;4.472;2022-11-15T05:49:58;-5952.38;;;15.12
74449;BMP280;62878;51.026;4.472;2022-11-15T05:52:29;-5951.84;;;15.09
74449;BMP280;62878;51.026;4.472;2022-11-15T05:54:56;-5954.13;;;15.22
74449;BMP280;62878;51.026;4.472;2022-11-15T05:57:23;-5954.31;;;15.23
74449;BMP280;62878;51.026;4.472;2022-11-15T05:59:49;-5954.13;;;15.22
74449;BMP280;62878;51.026;4.472;2022-11-15T06:02:14;-5954.63;;;15.25
74449;BMP280;62878;51.026;4.472;2022-11-15T06:04:40;-5954.63;;;15.25
74449;BMP280;62878;51.026;4.472;2022-11-15T06:07:05;-5950.59;;;15.01
74449;BMP280;62878;51.026;4.472;2022-11-15T06:09:30;-5952.13;;;15.10
74449;BMP280;62878;51.026;4.472;2022-11-15T06:11:56;-5954.13;;;15.22
74449;BMP280;62878;51.026;4.472;2022-11-15T06:14:21;-5954.88;;;15.27
74449;BMP280;62878;51.026;4.472;2022-11-15T06:16:46;-5954.97;;;15.27
74449;BMP280;62878;51.026;4.472;2022-11-15T06:19:13;-5954.72;;;15.26
74449;BMP280;62878;51.026;4.472;2022-11-15T06:21:38;-5954.88;;;15.27
74449;BMP280;62878;51.026;4.472;2022-11-15T06:24:04;-5954.88;;;15.27
74449;BMP280;62878;51.026;4.472;2022-11-15T06:26:29;-5954.81;;;15.26
74449;BMP280;62878;51.026;4.472;2022-11-15T06:28:55;-5955.06;;;15.28
74449;BMP280;62878;51.026;4.472;2022-11-15T06:31:20;-5954.56;;;15.25
74449;BMP280;62878;51.026;4.472;2022-11-15T06:33:47;-5953.38;;;15.18
74449;BMP280;62878;51.026;4.472;2022-11-15T06:36:15;-5954.63;;;15.25
74449;BMP280;62878;51.026;4.472;2022-11-15T06:38:42;-5955.47;;;15.30
74449;BMP280;62878;51.026;4.472;2022-11-15T06:41:09;-5955.91;;;15.33
74449;BMP280;62878;51.026;4.472;2022-11-15T06:43:35;-5955.56;;;15.31
74449;BMP280;62878;51.026;4.472;2022-11-15T06:46:02;-5956.00;;;15.33
74449;BMP280;62878;51.026;4.472;2022-11-15T06:48:28;-5955.66;;;15.31
74449;BMP280;62878;51.026;4.472;2022-11-15T06:50:55;-5955.06;;;15.28
74449;BMP280;62878;51.026;4.472;2022-11-15T06:53:20;-5955.16;;;15.28
74449;BMP280;62878;51.026;4.472;2022-11-15T06:55:46;-5955.81;;;15.32
74449;BMP280;62878;51.026;4.472;2022-11-15T06:58:12;-5955.47;;;15.30
74449;BMP280;62878;51.026;4.472;2022-11-15T07:00:38;-5955.41;;;15.30
74449;BMP280;62878;51.026;4.472;2022-11-15T07:03:03;-5952.88;;;15.15
74449;BMP280;62878;51.026;4.472;2022-11-15T07:05:29;-5955.31;;;15.29
74449;BMP280;62878;51.026;4.472;2022-11-15T07:07:55;-5955.22;;;15.29
74449;BMP280;62878;51.026;4.472;2022-11-15T07:10:22;-5953.13;;;15.16
74449;BMP280;62878;51.026;4.472;2022-11-15T07:12:50;-5954.97;;;15.27
74449;BMP280;62878;51.026;4.472;2022-11-15T07:15:16;-5953.78;;;15.20
74449;BMP280;62878;51.026;4.472;2022-11-15T07:17:42;-5955.06;;;15.28
74449;BMP280;62878;51.026;4.472;2022-11-15T07:20:08;-5954.97;;;15.27
74449;BMP280;62878;51.026;4.472;2022-11-15T07:22:33;-5954.63;;;15.25
74449;BMP280;62878;51.026;4.472;2022-11-15T07:24:58;-5954.06;;;15.22
74449;BMP280;62878;51.026;4.472;2022-11-15T07:27:24;-5954.81;;;15.26
74449;BMP280;62878;51.026;4.472;2022-11-15T07:29:49;-5954.81;;;15.26
74449;BMP280;62878;51.026;4.472;2022-11-15T07:32:14;-5952.94;;;15.15
74449;BMP280;62878;51.026;4.472;2022-11-15T07:34:40;-5953.78;;;15.20
74449;BMP280;62878;51.026;4.472;2022-11-15T07:37:05;-5954.81;;;15.26
74449;BMP280;62878;51.026;4.472;2022-11-15T07:39:30;-5954.47;;;15.24
74449;BMP280;62878;51.026;4.472;2022-11-15T07:41:55;-5954.13;;;15.22
74449;BMP280;62878;51.026;4.472;2022-11-15T07:44:41;-5954.47;;;15.24
74449;BMP280;62878;51.026;4.472;2022-11-15T07:47:06;-5954.22;;;15.23
74449;BMP280;62878;51.026;4.472;2022-11-15T07:49:31;-5954.31;;;15.23
74449;BMP280;62878;51.026;4.472;2022-11-15T07:51:57;-5953.28;;;15.17
74449;BMP280;62878;51.026;4.472;2022-11-15T07:54:22;-5953.78;;;15.20
74449;BMP280;62878;51.026;4.472;2022-11-15T07:56:49;-5953.97;;;15.21
74449;BMP280;62878;51.026;4.472;2022-11-15T07:59:14;-5954.13;;;15.22
74449;BMP280;62878;51.026;4.472;2022-11-15T08:01:39;-5954.13;;;15.22
74449;BMP280;62878;51.026;4.472;2022-11-15T08:04:05;-5954.47;;;15.24
74449;BMP280;62878;51.026;4.472;2022-11-15T08:06:30;-5952.94;;;15.15
74449;BMP280;62878;51.026;4.472;2022-11-15T08:08:55;-5954.06;;;15.22
74449;BMP280;62878;51.026;4.472;2022-11-15T08:11:21;-5954.06;;;15.22
74449;BMP280;62878;51.026;4.472;2022-11-15T08:13:46;-5953.97;;;15.21
74449;BMP280;62878;51.026;4.472;2022-11-15T08:16:11;-5953.78;;;15.20
74449;BMP280;62878;51.026;4.472;2022-11-15T08:18:37;-5954.47;;;15.24
74449;BMP280;62878;51.026;4.472;2022-11-15T08:21:03;-5954.38;;;15.24
74449;BMP280;62878;51.026;4.472;2022-11-15T08:23:29;-5953.88;;;15.21
74449;BMP280;62878;51.026;4.472;2022-11-15T08:26:02;-5953.63;;;15.19
74449;BMP280;62878;51.026;4.472;2022-11-15T08:28:29;-5953.78;;;15.20
74449;BMP280;62878;51.026;4.472;2022-11-15T08:30:54;-5953.88;;;15.21
74449;BMP280;62878;51.026;4.472;2022-11-15T08:33:21;-5954.06;;;15.22
74449;BMP280;62878;51.026;4.472;2022-11-15T08:35:47;-5949.34;;;14.94
74449;BMP280;62878;51.026;4.472;2022-11-15T08:38:13;-5954.31;;;15.23
74449;BMP280;62878;51.026;4.472;2022-11-15T08:40:39;-5954.31;;;15.23
74449;BMP280;62878;51.026;4.472;2022-11-15T08:43:04;-5953.97;;;15.21
74449;BMP280;62878;51.026;4.472;2022-11-15T08:45:30;-5950.59;;;15.01
74449;BMP280;62878;51.026;4.472;2022-11-15T08:47:57;-5954.13;;;15.22
74449;BMP280;62878;51.026;4.472;2022-11-15T08:50:23;-5954.06;;;15.22
74449;BMP280;62878;51.026;4.472;2022-11-15T08:52:49;-5952.69;;;15.14
74449;BMP280;62878;51.026;4.472;2022-11-15T08:55:14;-5953.97;;;15.21
74449;BMP280;62878;51.026;4.472;2022-11-15T08:57:40;-5954.06;;;15.22
74449;BMP280;62878;51.026;4.472;2022-11-15T09:00:05;-5954.13;;;15.22
74449;BMP280;62878;51.026;4.472;2022-11-15T09:02:32;-5953.97;;;15.21
74449;BMP280;62878;51.026;4.472;2022-11-15T09:04:57;-5954.13;;;15.22
74449;BMP280;62878;51.026;4.472;2022-11-15T09:07:23;-5953.88;;;15.21
74449;BMP280;62878;51.026;4.472;2022-11-15T09:09:49;-5953.88;;;15.21
74449;BMP280;62878;51.026;4.472;2022-11-15T09:12:14;-5954.81;;;15.26
74449;BMP280;62878;51.026;4.472;2022-11-15T09:14:39;-5954.72;;;15.26
74449;BMP280;62878;51.026;4.472;2022-11-15T09:17:07;-5954.22;;;15.23
74449;BMP280;62878;51.026;4.472;2022-11-15T09:19:34;-5954.06;;;15.22
74449;BMP280;62878;51.026;4.472;2022-11-15T09:21:59;-5952.94;;;15.15
74449;BMP280;62878;51.026;4.472;2022-11-15T09:24:24;-5954.13;;;15.22
74449;BMP280;62878;51.026;4.472;2022-11-15T09:26:51;-5954.13;;;15.22
74449;BMP280;62878;51.026;4.472;2022-11-15T09:29:17;-5952.88;;;15.15
74449;BMP280;62878;51.026;4.472;2022-11-15T09:31:42;-5954.31;;;15.23
74449;BMP280;62878;51.026;4.472;2022-11-15T09:34:07;-5954.56;;;15.25
74449;BMP280;62878;51.026;4.472;2022-11-15T09:36:33;-5954.13;;;15.22
74449;BMP280;62878;51.026;4.472;2022-11-15T09:38:58;-5953.97;;;15.21
74449;BMP280;62878;51.026;4.472;2022-11-15T09:47:31;-5953.97;;;15.21
74449;BMP280;62878;51.026;4.472;2022-11-15T09:50:06;-5953.38;;;15.18
74449;BMP280;62878;51.026;4.472;2022-11-15T09:52:34;-5953.28;;;15.17
74449;BMP280;62878;51.026;4.472;2022-11-15T09:55:01;-5953.97;;;15.21
74449;BMP280;62878;51.026;4.472;2022-11-15T10:00:08;-5954.31;;;15.23
74449;BMP280;62878;51.026;4.472;2022-11-15T10:05:41;-5949.41;;;14.94
74449;BMP280;62878;51.026;4.472;2022-11-15T10:11:10;-5953.03;;;15.16
74449;BMP280;62878;51.026;4.472;2022-11-15T10:13:41;-5953.63;;;15.19
74449;BMP280;62878;51.026;4.472;2022-11-15T10:22:00;-5953.88;;;15.21
74449;BMP280;62878;51.026;4.472;2022-11-15T10:24:35;-5954.13;;;15.22
74449;BMP280;62878;51.026;4.472;2022-11-15T10:27:10;-5951.94;;;15.09
74449;BMP280;62878;51.026;4.472;2022-11-15T10:29:42;-5954.31;;;15.23
74449;BMP280;62878;51.026;4.472;2022-11-15T10:32:11;-5953.47;;;15.18
74449;BMP280;62878;51.026;4.472;2022-11-15T10:34:36;-5954.38;;;15.24
74449;BMP280;62878;51.026;4.472;2022-11-15T10:37:01;-5954.31;;;15.23
74449;BMP280;62878;51.026;4.472;2022-11-15T10:39:27;-5947.16;;;14.80
74449;BMP280;62878;51.026;4.472;2022-11-15T10:41:53;-5949.34;;;14.94
74449;BMP280;62878;51.026;4.472;2022-11-15T10:44:29;-5950.19;;;14.99
74449;BMP280;62878;51.026;4.472;2022-11-15T10:49:25;-5953.03;;;15.16
74449;BMP280;62878;51.026;4.472;2022-11-15T10:52:19;-5954.81;;;15.26
74449;BMP280;62878;51.026;4.472;2022-11-15T10:57:13;-5954.97;;;15.27
74449;BMP280;62878;51.026;4.472;2022-11-15T10:59:43;-5956.00;;;15.33
74449;BMP280;62878;51.026;4.472;2022-11-15T11:02:40;-5956.22;;;15.35
74449;BMP280;62878;51.026;4.472;2022-11-15T11:08:20;-5956.50;;;15.37
74449;BMP280;62878;51.026;4.472;2022-11-15T11:10:54;-5956.56;;;15.37
74449;BMP280;62878;51.026;4.472;2022-11-15T11:13:25;-5956.00;;;15.33
74449;BMP280;62878;51.026;4.472;2022-11-15T11:19:18;-5957.06;;;15.40
74449;BMP280;62878;51.026;4.472;2022-11-15T11:24:14;-5955.56;;;15.31
74449;BMP280;62878;51.026;4.472;2022-11-15T11:26:49;-5957.84;;;15.45
74449;BMP280;62878;51.026;4.472;2022-11-15T11:35:05;-5958.44;;;15.48
74449;BMP280;62878;51.026;4.472;2022-11-15T11:37:39;-5955.16;;;15.28
74449;BMP280;62878;51.026;4.472;2022-11-15T11:40:20;-5957.50;;;15.43
74449;BMP280;62878;51.026;4.472;2022-11-15T11:43:48;-5956.06;;;15.34
74449;BMP280;62878;51.026;4.472;2022-11-15T11:46:16;-5957.34;;;15.42
74449;BMP280;62878;51.026;4.472;2022-11-15T11:48:57;-5957.91;;;15.45
74449;BMP280;62878;51.026;4.472;2022-11-15T11:51:45;-5957.25;;;15.41
74449;BMP280;62878;51.026;4.472;2022-11-15T11:54:13;-5957.84;;;15.45
74449;BMP280;62878;51.026;4.472;2022-11-15T11:56:42;-5958.34;;;15.48
74449;BMP280;62878;51.026;4.472;2022-11-15T12:01:49;-5958.16;;;15.47
74449;BMP280;62878;51.026;4.472;2022-11-15T12:07:03;-5957.50;;;15.43
74449;BMP280;62878;51.026;4.472;2022-11-15T12:09:42;-5958.00;;;15.46
74449;BMP280;62878;51.026;4.472;2022-11-15T12:12:27;-5957.91;;;15.45
74449;BMP280;62878;51.026;4.472;2022-11-15T12:17:25;-5957.50;;;15.43
74449;BMP280;62878;51.026;4.472;2022-11-15T12:19:55;-5954.47;;;15.24
74449;BMP280;62878;51.026;4.472;2022-11-15T12:22:28;-5957.50;;;15.43
74449;BMP280;62878;51.026;4.472;2022-11-15T12:25:04;-5957.25;;;15.41
74449;BMP280;62878;51.026;4.472;2022-11-15T12:27:45;-5956.16;;;15.34
74449;BMP280;62878;51.026;4.472;2022-11-15T12:30:17;-5956.66;;;15.38
74449;BMP280;62878;51.026;4.472;2022-11-15T12:32:54;-5957.66;;;15.44
74449;BMP280;62878;51.026;4.472;2022-11-15T12:35:34;-5956.16;;;15.34
74449;BMP280;62878;51.026;4.472;2022-11-15T12:38:00;-5957.84;;;15.45
74449;BMP280;62878;51.026;4.472;2022-11-15T12:40:26;-5957.66;;;15.44
74449;BMP280;62878;51.026;4.472;2022-11-15T12:43:10;-5957.00;;;15.40
74449;BMP280;62878;51.026;4.472;2022-11-15T12:45:49;-5956.56;;;15.37
74449;BMP280;62878;51.026;4.472;2022-11-15T13:04:13;-5956.81;;;15.39
74449;BMP280;62878;51.026;4.472;2022-11-15T13:06:43;-5957.34;;;15.42
74449;BMP280;62878;51.026;4.472;2022-11-15T13:12:11;-5957.50;;;15.43
74449;BMP280;62878;51.026;4.472;2022-11-15T13:17:56;-5957.06;;;15.40
74449;BMP280;62878;51.026;4.472;2022-11-15T13:20:23;-5957.00;;;15.40
74449;BMP280;62878;51.026;4.472;2022-11-15T13:26:10;-5957.34;;;15.42
74449;BMP280;62878;51.026;4.472;2022-11-15T13:28:39;-5957.34;;;15.42
74449;BMP280;62878;51.026;4.472;2022-11-15T13:33:42;-5957.34;;;15.42
74449;BMP280;62878;51.026;4.472;2022-11-15T13:36:19;-5954.13;;;15.22
74449;BMP280;62878;51.026;4.472;2022-11-15T13:38:54;-5957.16;;;15.41
74449;BMP280;62878;51.026;4.472;2022-11-15T13:41:24;-5956.81;;;15.39
74449;BMP280;62878;51.026;4.472;2022-11-15T13:43:52;-5957.00;;;15.40
74449;BMP280;62878;51.026;4.472;2022-11-15T13:48:45;-5957.00;;;15.40
74449;BMP280;62878;51.026;4.472;2022-11-15T13:53:46;-5957.59;;;15.43
74449;BMP280;62878;51.026;4.472;2022-11-15T13:56:14;-5957.34;;;15.42
74449;BMP280;62878;51.026;4.472;2022-11-15T13:58:40;-5956.81;;;15.39
74449;BMP280;62878;51.026;4.472;2022-11-15T14:01:06;-5956.75;;;15.38
74449;BMP280;62878;51.026;4.472;2022-11-15T14:03:35;-5954.72;;;15.26
74449;BMP280;62878;51.026;4.472;2022-11-15T14:06:12;-5956.81;;;15.39
74449;BMP280;62878;51.026;4.472;2022-11-15T14:08:42;-5956.31;;;15.35
74449;BMP280;62878;51.026;4.472;2022-11-15T14:11:21;-5956.91;;;15.39
74449;BMP280;62878;51.026;4.472;2022-11-15T14:16:47;-5957.34;;;15.42
74449;BMP280;62878;51.026;4.472;2022-11-15T14:19:33;-5955.16;;;15.28
74449;BMP280;62878;51.026;4.472;2022-11-15T14:22:15;-5957.25;;;15.41
74449;BMP280;62878;51.026;4.472;2022-11-15T14:24:43;-5955.22;;;15.29
74449;BMP280;62878;51.026;4.472;2022-11-15T14:27:27;-5956.81;;;15.39
74449;BMP280;62878;51.026;4.472;2022-11-15T14:29:54;-5956.66;;;15.38
74449;BMP280;62878;51.026;4.472;2022-11-15T14:32:38;-5957.00;;;15.40
74449;BMP280;62878;51.026;4.472;2022-11-15T14:35:20;-5956.66;;;15.38
74449;BMP280;62878;51.026;4.472;2022-11-15T14:37:46;-5953.72;;;15.20
74449;BMP280;62878;51.026;4.472;2022-11-15T14:40:15;-5956.66;;;15.38
74449;BMP280;62878;51.026;4.472;2022-11-15T14:42:41;-5956.81;;;15.39
74449;BMP280;62878;51.026;4.472;2022-11-15T14:45:16;-5956.81;;;15.39
74449;BMP280;62878;51.026;4.472;2022-11-15T14:47:41;-5956.56;;;15.37
74449;BMP280;62878;51.026;4.472;2022-11-15T14:50:11;-5957.84;;;15.45
74449;BMP280;62878;51.026;4.472;2022-11-15T14:52:36;-5958.59;;;15.49
74449;BMP280;62878;51.026;4.472;2022-11-15T14:55:08;-5959.00;;;15.52
74449;BMP280;62878;51.026;4.472;2022-11-15T14:57:35;-5958.16;;;15.47
74449;BMP280;62878;51.026;4.472;2022-11-15T15:00:01;-5956.91;;;15.39
74449;BMP280;62878;51.026;4.472;2022-11-15T15:02:27;-5957.50;;;15.43
74449;BMP280;62878;51.026;4.472;2022-11-15T15:04:52;-5958.50;;;15.49
74449;BMP280;62878;51.026;4.472;2022-11-15T15:07:18;-5958.09;;;15.46
74449;BMP280;62878;51.026;4.472;2022-11-15T15:09:44;-5957.50;;;15.43
74449;BMP280;62878;51.026;4.472;2022-11-15T15:12:22;-5957.84;;;15.45
74449;BMP280;62878;51.026;4.472;2022-11-15T15:14:49;-5958.16;;;15.47
74449;BMP280;62878;51.026;4.472;2022-11-15T15:17:15;-5959.84;;;15.57
74449;BMP280;62878;51.026;4.472;2022-11-15T15:19:41;-5961.19;;;15.65
74449;BMP280;62878;51.026;4.472;2022-11-15T15:22:16;-5959.53;;;15.55
74449;BMP280;62878;51.026;4.472;2022-11-15T15:24:43;-5961.03;;;15.64
74449;BMP280;62878;51.026;4.472;2022-11-15T15:27:09;-5947.06;;;14.80
74449;BMP280;62878;51.026;4.472;2022-11-15T15:29:34;-5941.84;;;14.49
74449;BMP280;62878;51.026;4.472;2022-11-15T15:32:00;-5941.75;;;14.48
74449;BMP280;62878;51.026;4.472;2022-11-15T15:34:26;-5939.41;;;14.34
74449;BMP280;62878;51.026;4.472;2022-11-15T15:37:21;-5943.84;;;14.61
74449;BMP280;62878;51.026;4.472;2022-11-15T15:39:51;-5947.06;;;14.80
74449;BMP280;62878;51.026;4.472;2022-11-15T15:42:18;-5948.75;;;14.90
74449;BMP280;62878;51.026;4.472;2022-11-15T15:44:44;-5950.50;;;15.01
74449;BMP280;62878;51.026;4.472;2022-11-15T15:47:12;-5948.50;;;14.89
74449;BMP280;62878;51.026;4.472;2022-11-15T15:49:38;-5949.59;;;14.95
74449;BMP280;62878;51.026;4.472;2022-11-15T15:52:03;-5952.13;;;15.10
74449;BMP280;62878;51.026;4.472;2022-11-15T15:54:29;-5950.25;;;14.99
74449;BMP280;62878;51.026;4.472;2022-11-15T15:56:54;-5952.78;;;15.14
74449;BMP280;62878;51.026;4.472;2022-11-15T15:59:19;-5953.22;;;15.17
74449;BMP280;62878;51.026;4.472;2022-11-15T16:01:45;-5951.44;;;15.06
74449;BMP280;62878;51.026;4.472;2022-11-15T16:04:11;-5953.22;;;15.17
74449;BMP280;62878;51.026;4.472;2022-11-15T16:06:40;-5950.69;;;15.02
74449;BMP280;62878;51.026;4.472;2022-11-15T16:09:15;-5953.03;;;15.16
74449;BMP280;62878;51.026;4.472;2022-11-15T16:11:44;-5952.44;;;15.12